Time;durP1;ratioP1;P1;durP2;ratioP2;P2;SDS_P1;SDS_P2;PMS_P1;PMS_P2;Temp;Humidity;BMP_temperature;BMP_pressure;BME280_temperature;BME280_humidity;BME280_pressure;Samples;Min_cycle;Max_cycle;Signal;HPM_P1;HPM_P2
2021/03/11 00:02:18;;;;;;;17.97;14.17;;;;;;;1.64;81.44;97718.09;5014707;28;20372;-70
2021/03/11 00:04:48;;;;;;;18.73;15.53;;;;;;;1.71;81.35;97713.25;5013963;28;20229;-70
2021/03/11 00:07:15;;;;;;;19.13;14.90;;;;;;;1.71;81.84;97708.88;5016259;28;20225;-70
2021/03/11 00:09:42;;;;;;;19.17;15.80;;;;;;;1.74;81.83;97723.47;5019014;28;20212;-70
2021/03/11 00:12:11;;;;;;;17.13;14.40;;;;;;;1.80;81.75;97722.19;5014579;28;20601;-70
2021/03/11 00:14:38;;;;;;;22.57;15.87;;;;;;;1.83;80.54;97712.31;5011893;28;20219;-69
2021/03/11 00:17:05;;;;;;;18.03;14.33;;;;;;;1.87;80.70;97718.16;5013058;28;20231;-69
2021/03/11 00:19:34;;;;;;;20.10;16.53;;;;;;;1.90;80.81;97714.50;5006136;28;20216;-69
2021/03/11 00:22:01;;;;;;;18.73;16.00;;;;;;;1.90;80.55;97717.94;5009528;28;20859;-69
2021/03/11 00:24:28;;;;;;;17.20;15.33;;;;;;;2.00;80.60;97718.88;5010481;28;20673;-70
2021/03/11 00:26:55;;;;;;;19.67;15.57;;;;;;;2.00;80.23;97723.28;5016110;28;20220;-69
2021/03/11 00:29:22;;;;;;;18.73;16.30;;;;;;;1.94;80.35;97706.28;5017374;28;20204;-70
2021/03/11 00:31:49;;;;;;;20.13;15.83;;;;;;;2.00;80.41;97699.78;5012085;28;20204;-69
2021/03/11 00:34:17;;;;;;;17.77;15.87;;;;;;;1.98;80.96;97705.09;5013684;28;20209;-69
2021/03/11 00:36:44;;;;;;;18.73;15.40;;;;;;;2.05;80.22;97694.19;5013757;28;20235;-70
2021/03/11 00:39:11;;;;;;;20.50;15.53;;;;;;;2.05;80.03;97697.63;5015564;28;20771;-70
2021/03/11 00:41:38;;;;;;;24.07;17.37;;;;;;;2.04;80.55;97709.03;5010902;28;20215;-69
2021/03/11 00:44:06;;;;;;;25.60;17.63;;;;;;;1.95;80.57;97700.13;5011634;28;20211;-69
2021/03/11 00:46:33;;;;;;;18.37;15.90;;;;;;;2.10;80.01;97692.06;5014406;28;20503;-69
2021/03/11 00:49:00;;;;;;;20.03;16.00;;;;;;;2.11;80.30;97683.28;5012570;28;20697;-68
2021/03/11 00:51:27;;;;;;;19.83;16.40;;;;;;;2.08;80.03;97683.47;5017110;28;20210;-70
2021/03/11 00:53:55;;;;;;;20.27;16.67;;;;;;;2.29;79.25;97675.78;5011038;28;20204;-70
2021/03/11 00:56:22;;;;;;;20.70;16.33;;;;;;;2.25;79.15;97664.72;5017546;28;20207;-69
2021/03/11 00:58:49;;;;;;;24.53;16.00;;;;;;;2.09;80.19;97665.06;5015369;28;20256;-69
2021/03/11 01:01:16;;;;;;;17.90;14.73;;;;;;;2.18;80.24;97658.31;5013834;28;20211;-69
2021/03/11 01:03:43;;;;;;;21.03;16.67;;;;;;;2.20;80.37;97653.78;5014304;28;20219;-69
2021/03/11 01:06:11;;;;;;;18.23;15.40;;;;;;;2.11;81.15;97639.66;5012018;28;20759;-70
2021/03/11 01:08:38;;;;;;;19.23;15.90;;;;;;;2.21;80.54;97631.94;5016637;28;20244;-69
2021/03/11 01:11:06;;;;;;;23.20;17.57;;;;;;;2.36;79.75;97626.44;5011311;28;20204;-69
2021/03/11 01:13:33;;;;;;;18.00;15.70;;;;;;;2.41;79.61;97611.22;5010612;28;20215;-70
2021/03/11 01:16:00;;;;;;;20.70;16.83;;;;;;;2.37;79.77;97605.41;5005701;28;20227;-69
2021/03/11 01:18:27;;;;;;;22.77;16.40;;;;;;;2.44;79.94;97603.09;5004531;28;20224;-69
2021/03/11 01:20:54;;;;;;;20.53;15.13;;;;;;;2.40;79.11;97586.00;5006002;28;20212;-69
2021/03/11 01:23:21;;;;;;;19.57;16.43;;;;;;;2.45;79.22;97578.63;5004496;28;20208;-69
2021/03/11 01:25:48;;;;;;;18.03;14.73;;;;;;;2.39;78.81;97582.56;5008903;28;20224;-69
2021/03/11 01:28:16;;;;;;;19.17;15.67;;;;;;;2.52;78.97;97581.59;5007416;28;20225;-69
2021/03/11 01:30:43;;;;;;;18.70;16.53;;;;;;;2.43;79.38;97578.75;5004540;28;20213;-70
2021/03/11 01:33:11;;;;;;;17.80;15.90;;;;;;;2.47;79.46;97568.91;5005439;28;20224;-69
2021/03/11 01:35:38;;;;;;;21.27;16.80;;;;;;;2.45;79.39;97576.84;5005472;28;20205;-69
2021/03/11 01:38:06;;;;;;;18.07;14.67;;;;;;;2.46;78.96;97565.44;5006346;28;20712;-69
2021/03/11 01:40:33;;;;;;;19.07;16.07;;;;;;;2.65;79.02;97561.34;5009953;28;20201;-70
2021/03/11 01:43:00;;;;;;;20.87;16.43;;;;;;;2.64;78.02;97557.03;5004514;28;20208;-69
2021/03/11 01:45:28;;;;;;;19.17;16.37;;;;;;;2.59;78.40;97570.50;5005997;28;20603;-69
2021/03/11 01:47:56;;;;;;;17.53;14.93;;;;;;;2.57;78.55;97558.50;5006513;28;20228;-68
2021/03/11 01:50:23;;;;;;;17.83;14.90;;;;;;;2.62;78.54;97552.91;5007446;28;20205;-69
2021/03/11 01:52:50;;;;;;;19.30;15.47;;;;;;;2.61;78.34;97549.44;5000629;28;20948;-69
2021/03/11 01:55:18;;;;;;;19.60;15.97;;;;;;;2.62;78.82;97537.19;5007133;28;20201;-69
2021/03/11 01:57:46;;;;;;;16.90;15.17;;;;;;;2.66;78.70;97536.84;5006514;28;20228;-70
2021/03/11 02:00:15;;;;;;;19.77;16.47;;;;;;;2.62;78.22;97539.81;5008020;28;20209;-69
2021/03/11 02:02:44;;;;;;;18.40;15.20;;;;;;;2.59;78.30;97533.88;5008154;28;20219;-69
2021/03/11 02:05:13;;;;;;;18.50;15.37;;;;;;;2.68;78.29;97534.09;5010229;28;20232;-69
2021/03/11 02:07:40;;;;;;;18.77;14.57;;;;;;;2.77;78.06;97533.31;5010902;28;20759;-69
2021/03/11 02:10:09;;;;;;;19.43;15.67;;;;;;;2.84;77.28;97513.56;5008742;28;20205;-69
2021/03/11 02:12:40;;;;;;;16.43;14.77;;;;;;;2.81;77.69;97499.88;5007506;28;20201;-70
2021/03/11 02:15:11;;;;;;;18.10;14.50;;;;;;;2.78;77.61;97492.28;5012766;28;20669;-70
2021/03/11 02:17:41;;;;;;;17.10;14.87;;;;;;;2.65;78.09;97498.56;5009063;28;20604;-69
2021/03/11 02:20:38;;;;;;;20.00;16.20;;;;;;;2.79;77.30;97499.19;5007920;28;20204;-69
2021/03/11 02:23:27;;;;;;;18.20;15.40;;;;;;;2.78;77.17;97494.91;4992348;28;20452;-70
2021/03/11 02:25:57;;;;;;;17.27;14.70;;;;;;;2.75;77.36;97481.13;5008847;28;20225;-69
2021/03/11 02:28:29;;;;;;;18.67;15.53;;;;;;;2.83;77.27;97477.84;5008836;28;20220;-69
2021/03/11 02:30:58;;;;;;;17.50;15.63;;;;;;;2.85;77.44;97482.97;5009446;28;20240;-69
2021/03/11 02:33:26;;;;;;;17.00;15.20;;;;;;;2.69;78.27;97481.63;5009630;28;20300;-70
2021/03/11 02:35:54;;;;;;;18.73;15.43;;;;;;;2.79;78.34;97473.03;5008506;28;20206;-70
2021/03/11 02:38:22;;;;;;;18.37;15.60;;;;;;;2.87;76.95;97465.34;5013459;28;20239;-69
2021/03/11 02:40:49;;;;;;;17.70;14.33;;;;;;;2.84;76.53;97458.59;5007373;28;20622;-70
2021/03/11 02:43:17;;;;;;;17.17;15.37;;;;;;;2.69;77.98;97457.25;5009537;28;20215;-70
2021/03/11 02:45:44;;;;;;;18.23;15.53;;;;;;;2.69;77.89;97454.63;5006927;28;20229;-69
2021/03/11 02:48:13;;;;;;;17.97;14.97;;;;;;;2.75;77.51;97446.25;5006552;28;20229;-70
2021/03/11 02:50:41;;;;;;;16.83;13.90;;;;;;;2.77;77.55;97441.72;5009944;28;20472;-69
2021/03/11 02:53:10;;;;;;;18.07;14.23;;;;;;;2.84;77.25;97431.59;5008193;28;20201;-69
2021/03/11 02:55:40;;;;;;;19.93;15.60;;;;;;;2.86;77.50;97437.53;5006311;28;20204;-69
2021/03/11 02:58:08;;;;;;;15.43;13.73;;;;;;;2.86;76.89;97440.13;5010897;28;20240;-69
2021/03/11 03:00:37;;;;;;;17.93;14.37;;;;;;;2.79;76.85;97439.00;5007951;28;20209;-69
2021/03/11 03:03:07;;;;;;;15.37;13.80;;;;;;;2.81;76.40;97432.66;5006342;28;20228;-70
2021/03/11 03:05:35;;;;;;;17.63;15.23;;;;;;;2.91;76.75;97426.69;5008405;28;20229;-70
2021/03/11 03:08:05;;;;;;;15.80;14.10;;;;;;;2.93;76.66;97417.72;5006842;28;20231;-69
2021/03/11 03:10:35;;;;;;;16.57;14.57;;;;;;;2.95;76.15;97420.22;5008288;28;20228;-70
2021/03/11 03:13:06;;;;;;;15.93;14.20;;;;;;;3.03;75.69;97404.69;5007627;28;20229;-69
2021/03/11 03:15:34;;;;;;;18.37;13.53;;;;;;;3.07;74.96;97395.59;5010590;28;20193;-70
2021/03/11 03:18:01;;;;;;;15.97;13.50;;;;;;;3.06;75.23;97393.94;5005797;28;20674;-69
2021/03/11 03:20:28;;;;;;;16.57;14.77;;;;;;;3.07;74.72;97386.94;5013525;28;20204;-70
2021/03/11 03:22:57;;;;;;;15.73;14.07;;;;;;;2.95;75.56;97391.44;5005578;28;20208;-70
2021/03/11 03:25:45;;;;;;;15.13;13.17;;;;;;;3.12;74.97;97385.56;5011082;28;20247;-69
2021/03/11 03:28:12;;;;;;;15.47;13.80;;;;;;;3.13;74.74;97376.75;5007218;28;20641;-70
2021/03/11 03:30:39;;;;;;;16.73;13.47;;;;;;;3.12;74.51;97382.94;5009160;28;20201;-70
2021/03/11 03:33:06;;;;;;;16.77;13.97;;;;;;;3.09;74.72;97377.97;5012177;28;20223;-70
2021/03/11 03:35:33;;;;;;;17.33;13.80;;;;;;;3.11;74.13;97377.84;5007314;28;20209;-69
2021/03/11 03:38:01;;;;;;;13.83;12.40;;;;;;;3.21;73.82;97386.56;5009994;28;20384;-69
2021/03/11 03:40:29;;;;;;;16.50;13.57;;;;;;;3.19;73.76;97378.84;5010226;28;20200;-70
2021/03/11 03:43:01;;;;;;;13.63;12.17;;;;;;;3.37;73.40;97380.00;5010686;28;20201;-69
2021/03/11 03:45:30;;;;;;;16.20;13.10;;;;;;;3.22;75.99;97369.06;5006827;28;20216;-69
2021/03/11 03:47:57;;;;;;;14.93;12.70;;;;;;;3.14;78.60;97372.34;5001435;28;20229;-68
2021/03/11 03:50:25;;;;;;;15.70;13.83;;;;;;;3.08;80.09;97368.47;4998990;28;20701;-70
2021/03/11 03:52:53;;;;;;;16.30;14.33;;;;;;;2.95;80.38;97360.81;5001566;28;20232;-70
2021/03/11 03:55:21;;;;;;;18.37;14.93;;;;;;;2.93;81.53;97354.09;5000588;28;20216;-69
2021/03/11 03:57:51;;;;;;;17.17;14.77;;;;;;;2.87;81.55;97356.28;5001503;28;20251;-71
2021/03/11 04:00:21;;;;;;;16.47;13.77;;;;;;;2.81;83.91;97343.69;5003455;28;20215;-69
2021/03/11 04:02:52;;;;;;;14.03;12.57;;;;;;;2.79;82.82;97347.41;5006272;28;20688;-69
2021/03/11 04:05:20;;;;;;;14.67;13.13;;;;;;;2.85;82.88;97334.63;5004288;28;20214;-70
2021/03/11 04:07:47;;;;;;;15.87;13.47;;;;;;;2.93;82.04;97325.28;5007354;28;20252;-69
2021/03/11 04:10:15;;;;;;;14.73;13.13;;;;;;;2.82;83.28;97313.13;5009391;28;20665;-68
2021/03/11 04:12:43;;;;;;;15.47;13.90;;;;;;;2.84;82.21;97325.13;5003965;28;20205;-69
2021/03/11 04:15:11;;;;;;;16.53;14.83;;;;;;;2.85;82.60;97325.94;5008689;28;20205;-69
2021/03/11 04:17:38;;;;;;;16.70;14.23;;;;;;;2.85;82.89;97313.69;5004195;28;20255;-70
2021/03/11 04:20:07;;;;;;;15.77;13.07;;;;;;;2.95;83.53;97310.28;5004182;28;20591;-69
2021/03/11 04:22:34;;;;;;;17.93;13.63;;;;;;;2.99;81.58;97311.66;5006319;28;20204;-70
2021/03/11 04:25:02;;;;;;;16.17;14.00;;;;;;;3.05;80.94;97300.66;5009515;28;20243;-68
2021/03/11 04:27:29;;;;;;;14.43;12.73;;;;;;;2.98;81.69;97295.13;5007310;28;20231;-69
2021/03/11 04:29:57;;;;;;;17.60;13.33;;;;;;;2.98;81.29;97299.53;5005972;28;20590;-70
2021/03/11 04:32:25;;;;;;;15.97;14.27;;;;;;;3.14;80.54;97305.09;5006493;28;20210;-69
2021/03/11 04:34:52;;;;;;;13.63;12.33;;;;;;;2.97;81.60;97308.34;5009041;28;20248;-69
2021/03/11 04:37:19;;;;;;;14.53;13.03;;;;;;;3.15;80.57;97301.50;5007294;28;20286;-70
2021/03/11 04:39:46;;;;;;;15.57;13.93;;;;;;;3.05;81.58;97290.19;5012354;28;20215;-69
2021/03/11 04:42:14;;;;;;;15.23;13.63;;;;;;;3.07;81.43;97284.84;5009072;28;20429;-69
2021/03/11 04:44:42;;;;;;;16.43;13.63;;;;;;;3.04;81.33;97278.06;5004026;28;20212;-69
2021/03/11 04:47:10;;;;;;;16.00;13.80;;;;;;;3.01;81.11;97265.25;4999647;28;20351;-69
2021/03/11 04:49:39;;;;;;;14.43;12.93;;;;;;;3.08;80.90;97265.56;5004414;28;20223;-71
2021/03/11 04:52:06;;;;;;;15.60;13.97;;;;;;;3.18;80.27;97261.16;5008154;28;20706;-69
2021/03/11 04:54:34;;;;;;;17.33;14.40;;;;;;;3.29;80.24;97260.22;5004686;28;20584;-71
2021/03/11 04:57:01;;;;;;;16.03;13.87;;;;;;;3.21;81.19;97246.94;5005326;28;20232;-70
2021/03/11 04:59:28;;;;;;;16.27;13.63;;;;;;;3.32;80.34;97249.47;5007742;28;20817;-71
2021/03/11 05:01:58;;;;;;;17.00;15.20;;;;;;;3.27;80.44;97249.03;5007510;28;20281;-71
2021/03/11 05:04:26;;;;;;;15.10;13.30;;;;;;;3.31;80.06;97240.75;5007520;28;20287;-72
2021/03/11 05:06:53;;;;;;;15.73;13.30;;;;;;;3.39;80.06;97234.84;5004331;28;20492;-69
2021/03/11 05:09:20;;;;;;;14.80;13.07;;;;;;;3.35;80.45;97243.94;5006811;28;20215;-71
2021/03/11 05:11:48;;;;;;;15.90;14.20;;;;;;;3.16;83.75;97245.56;5003252;28;20209;-71
2021/03/11 05:14:14;;;;;;;16.73;15.03;;;;;;;3.12;86.81;97235.50;5007719;28;20204;-71
2021/03/11 05:16:42;;;;;;;17.77;15.07;;;;;;;3.01;87.66;97229.41;5004818;28;20644;-71
2021/03/11 05:19:09;;;;;;;18.60;16.17;;;;;;;2.89;89.88;97223.50;5005302;28;20296;-71
2021/03/11 05:21:38;;;;;;;15.97;14.37;;;;;;;2.71;92.08;97223.31;5004226;28;20204;-71
2021/03/11 05:24:05;;;;;;;19.47;15.17;;;;;;;2.64;92.63;97224.78;5007204;28;20205;-71
2021/03/11 05:26:32;;;;;;;17.03;14.90;;;;;;;2.72;92.34;97221.50;5006538;28;20319;-70
2021/03/11 05:29:00;;;;;;;17.20;15.47;;;;;;;2.70;91.94;97220.81;5004770;28;20262;-69
2021/03/11 05:31:27;;;;;;;17.50;13.87;;;;;;;2.76;92.98;97215.03;5007803;28;20247;-72
2021/03/11 05:34:03;;;;;;;17.50;15.57;;;;;;;2.78;92.95;97220.16;5008462;28;20212;-71
2021/03/11 05:36:30;;;;;;;15.43;13.83;;;;;;;2.79;91.74;97201.69;5006052;28;20209;-70
2021/03/11 05:39:00;;;;;;;17.90;15.93;;;;;;;2.78;92.07;97205.25;5005368;28;20248;-69
2021/03/11 05:41:28;;;;;;;16.07;14.13;;;;;;;2.82;91.80;97205.84;5003753;28;20208;-69
2021/03/11 05:43:55;;;;;;;16.67;14.97;;;;;;;2.80;92.60;97208.56;5004954;28;20685;-69
2021/03/11 05:46:23;;;;;;;17.40;15.60;;;;;;;2.81;91.67;97198.94;5005483;28;20776;-72
2021/03/11 05:48:51;;;;;;;16.47;14.47;;;;;;;2.71;92.29;97189.28;5005211;28;20232;-72
2021/03/11 05:51:18;;;;;;;15.80;14.17;;;;;;;2.83;92.17;97194.41;5010622;28;20487;-72
2021/03/11 05:53:45;;;;;;;16.97;14.97;;;;;;;2.95;91.16;97182.03;5003477;28;20217;-72
2021/03/11 05:56:13;;;;;;;17.87;14.43;;;;;;;2.97;89.25;97198.44;5004243;28;20585;-69
2021/03/11 05:58:40;;;;;;;17.13;13.10;;;;;;;3.01;88.71;97189.34;5003574;28;20259;-71
2021/03/11 06:01:08;;;;;;;18.07;14.47;;;;;;;3.07;88.96;97186.16;5005369;28;20207;-71
2021/03/11 06:03:36;;;;;;;16.07;14.07;;;;;;;3.05;88.71;97188.09;5001952;28;20216;-72
2021/03/11 06:06:03;;;;;;;15.73;14.03;;;;;;;3.06;88.90;97179.28;5007716;28;20727;-72
2021/03/11 06:08:31;;;;;;;17.33;13.77;;;;;;;3.13;87.96;97192.66;5001782;28;20228;-72
2021/03/11 06:10:59;;;;;;;18.37;14.03;;;;;;;3.16;87.58;97197.63;5006026;28;20313;-72
2021/03/11 06:13:28;;;;;;;17.07;14.90;;;;;;;3.28;88.45;97193.91;5003049;28;20262;-72
2021/03/11 06:15:59;;;;;;;15.60;13.63;;;;;;;3.46;87.32;97201.88;4998622;28;20600;-72
2021/03/11 06:18:31;;;;;;;16.43;13.53;;;;;;;3.58;86.28;97192.09;5002385;28;20507;-71
2021/03/11 06:20:59;;;;;;;16.07;13.20;;;;;;;3.40;85.95;97205.06;5001802;28;20196;-71
2021/03/11 06:23:26;;;;;;;17.37;13.60;;;;;;;3.60;86.46;97199.84;5002463;28;20366;-71
2021/03/11 06:25:54;;;;;;;16.03;13.13;;;;;;;3.58;85.99;97191.25;5004475;28;20605;-71
2021/03/11 06:28:52;;;;;;;14.30;12.80;;;;;;;3.63;86.05;97186.44;5006298;28;20228;-72
2021/03/11 06:31:20;;;;;;;15.30;13.77;;;;;;;3.54;86.19;97182.88;5001904;28;20209;-72
2021/03/11 06:33:49;;;;;;;14.83;13.53;;;;;;;3.60;87.36;97189.34;5003784;28;20209;-71
2021/03/11 06:36:17;;;;;;;14.33;12.93;;;;;;;3.66;88.84;97182.72;5002159;28;20694;-72
2021/03/11 06:38:45;;;;;;;15.57;13.03;;;;;;;3.64;88.75;97180.25;5003984;28;20224;-72
2021/03/11 06:41:12;;;;;;;18.53;15.57;;;;;;;3.65;86.78;97179.28;5001105;28;20216;-72
2021/03/11 06:43:57;;;;;;;57.23;36.20;;;;;;;3.60;88.02;97157.91;5004305;28;20205;-72
2021/03/11 06:46:24;;;;;;;54.63;34.40;;;;;;;3.62;87.02;97164.66;5008607;28;20232;-72
2021/03/11 06:49:05;;;;;;;22.10;18.20;;;;;;;3.74;85.70;97160.06;5008893;28;20609;-72
2021/03/11 06:51:32;;;;;;;16.27;13.50;;;;;;;3.78;86.50;97162.41;5007284;28;20211;-72
2021/03/11 06:54:00;;;;;;;14.63;13.17;;;;;;;3.95;85.34;97166.91;5007725;28;20456;-71
2021/03/11 06:56:28;;;;;;;16.43;14.47;;;;;;;4.09;83.95;97167.44;5011242;28;20203;-72
2021/03/11 06:59:00;;;;;;;14.70;13.20;;;;;;;4.11;82.85;97149.75;5008018;28;20225;-72
2021/03/11 07:01:29;;;;;;;15.77;13.80;;;;;;;4.08;82.90;97148.25;5013850;28;20211;-72
2021/03/11 07:03:58;;;;;;;14.07;12.57;;;;;;;4.25;84.09;97141.41;5008557;28;20205;-74
2021/03/11 07:06:27;;;;;;;14.20;12.77;;;;;;;4.31;82.91;97142.63;5006938;28;20477;-72
2021/03/11 07:08:54;;;;;;;14.40;12.90;;;;;;;4.41;80.79;97151.28;5009069;28;20243;-72
2021/03/11 07:11:22;;;;;;;13.13;11.77;;;;;;;4.42;80.36;97146.88;5007843;28;20702;-72
2021/03/11 07:13:49;;;;;;;13.83;12.33;;;;;;;4.53;78.85;97138.78;5003373;28;20604;-73
2021/03/11 07:16:18;;;;;;;14.33;12.77;;;;;;;4.70;79.49;97146.84;5008709;28;20200;-73
2021/03/11 07:18:46;;;;;;;12.93;11.10;;;;;;;4.78;78.67;97137.25;5006732;28;20229;-72
2021/03/11 07:21:13;;;;;;;12.90;11.60;;;;;;;4.92;76.92;97145.59;5004682;28;20215;-72
2021/03/11 07:23:45;;;;;;;13.57;12.27;;;;;;;4.92;77.34;97146.44;5006688;28;20678;-72
2021/03/11 07:26:12;;;;;;;13.07;11.57;;;;;;;5.04;77.15;97159.31;5010010;28;20262;-72
2021/03/11 07:28:44;;;;;;;13.33;11.80;;;;;;;5.13;77.37;97163.72;5007552;28;20311;-71
2021/03/11 07:31:11;;;;;;;13.30;11.20;;;;;;;5.12;76.34;97161.22;5005534;28;20379;-72
2021/03/11 07:33:39;;;;;;;13.93;12.47;;;;;;;5.24;75.30;97151.31;5007115;28;20556;-73
2021/03/11 07:36:08;;;;;;;15.00;12.20;;;;;;;5.38;75.04;97140.25;5007424;28;20303;-72
2021/03/11 07:38:37;;;;;;;12.70;11.50;;;;;;;5.42;75.11;97130.28;5005424;28;20645;-72
2021/03/11 07:41:06;;;;;;;12.30;10.87;;;;;;;5.45;74.24;97141.28;5009824;28;20209;-72
2021/03/11 07:43:33;;;;;;;12.23;10.70;;;;;;;5.42;74.66;97140.78;5007325;28;20205;-72
2021/03/11 07:46:02;;;;;;;12.87;11.57;;;;;;;5.34;75.25;97131.88;5009223;28;20574;-72
2021/03/11 07:48:30;;;;;;;14.43;12.90;;;;;;;5.34;75.78;97142.38;5005978;28;20232;-72
2021/03/11 07:50:58;;;;;;;12.17;10.87;;;;;;;5.56;74.58;97134.97;5005376;28;20411;-72
2021/03/11 07:53:26;;;;;;;13.60;12.37;;;;;;;5.52;74.02;97140.72;5004272;28;20212;-72
2021/03/11 07:55:54;;;;;;;12.73;11.53;;;;;;;5.49;75.00;97124.28;5005921;28;20212;-73
2021/03/11 07:58:40;;;;;;;12.40;11.20;;;;;;;5.76;74.26;97116.38;5007603;28;20228;-72
2021/03/11 08:01:08;;;;;;;12.33;11.03;;;;;;;5.87;73.09;97100.34;5007323;28;20209;-73
2021/03/11 08:03:37;;;;;;;12.53;11.23;;;;;;;5.96;73.53;97109.09;5002712;28;20263;-72
2021/03/11 08:06:21;;;;;;;12.37;11.13;;;;;;;6.14;72.58;97110.84;5006080;28;20259;-72
2021/03/11 08:08:48;;;;;;;12.17;11.03;;;;;;;6.14;71.84;97116.09;5002506;28;20315;-73
2021/03/11 08:11:34;;;;;;;11.67;10.50;;;;;;;6.30;71.14;97115.34;5007797;28;20209;-73
2021/03/11 08:14:17;;;;;;;11.03;9.93;;;;;;;6.29;70.61;97117.19;5006319;28;20233;-72
2021/03/11 08:16:44;;;;;;;12.17;11.07;;;;;;;6.27;70.70;97126.19;5003138;28;20214;-72
2021/03/11 08:19:52;;;;;;;13.20;11.90;;;;;;;6.27;71.65;97123.56;5006092;28;20201;-72
2021/03/11 08:22:56;;;;;;;12.37;11.13;;;;;;;6.43;70.21;97121.00;5003421;28;20212;-73
2021/03/11 08:25:41;;;;;;;11.90;10.70;;;;;;;6.34;70.94;97109.63;5007810;28;20200;-73
2021/03/11 08:28:39;;;;;;;12.87;11.67;;;;;;;6.48;69.54;97099.47;5005441;28;20283;-72
2021/03/11 08:31:07;;;;;;;12.77;11.47;;;;;;;6.41;71.27;97107.16;5003255;28;20271;-71
2021/03/11 08:33:55;;;;;;;11.60;10.57;;;;;;;6.57;70.03;97105.59;5006324;28;20232;-72
2021/03/11 08:36:38;;;;;;;12.23;10.20;;;;;;;6.51;69.50;97093.88;5007839;28;20825;-72
2021/03/11 08:39:36;;;;;;;11.77;10.67;;;;;;;6.77;68.68;97090.31;5003847;28;20211;-72
2021/03/11 08:42:48;;;;;;;10.20;9.10;;;;;;;6.83;68.69;97080.97;5012485;28;20208;-72
2021/03/11 08:46:00;;;;;;;11.00;9.70;;;;;;;6.97;68.77;97056.59;5000874;28;20315;-72
2021/03/11 08:48:39;;;;;;;9.93;8.97;;;;;;;7.13;68.37;97058.41;5004073;28;20828;-72
2021/03/11 08:51:09;;;;;;;9.33;8.43;;;;;;;7.34;68.05;97052.63;5003604;28;20652;-71
2021/03/11 08:53:48;;;;;;;9.87;8.97;;;;;;;7.40;68.78;97053.78;5006216;28;20205;-72
2021/03/11 08:56:37;;;;;;;8.63;7.87;;;;;;;7.59;67.42;97031.50;5006479;28;20268;-71
2021/03/11 08:59:05;;;;;;;9.70;8.73;;;;;;;7.61;67.53;97034.81;5005420;28;20211;-72
2021/03/11 09:01:36;;;;;;;8.40;7.60;;;;;;;7.65;68.02;97038.75;5007705;28;20200;-72
2021/03/11 09:04:06;;;;;;;8.20;7.40;;;;;;;7.75;67.93;97046.44;5007014;28;20240;-72
2021/03/11 09:06:55;;;;;;;9.17;7.87;;;;;;;7.80;68.22;97030.97;5004525;28;20243;-72
2021/03/11 09:09:33;;;;;;;7.93;7.20;;;;;;;7.91;68.53;97035.00;5005610;28;20205;-72
2021/03/11 09:12:01;;;;;;;8.23;7.13;;;;;;;8.05;68.47;97030.84;5007478;28;20208;-72
2021/03/11 09:14:28;;;;;;;7.27;6.57;;;;;;;8.10;68.63;97027.69;5010809;28;20367;-73
2021/03/11 09:17:08;;;;;;;6.93;6.00;;;;;;;8.33;67.14;97030.38;5009232;28;20208;-72
2021/03/11 09:19:46;;;;;;;6.83;6.23;;;;;;;8.52;67.60;97010.66;5002190;28;20283;-72
2021/03/11 09:22:26;;;;;;;7.03;6.43;;;;;;;8.60;67.37;97001.03;5001755;28;20216;-72
2021/03/11 09:25:13;;;;;;;6.17;5.63;;;;;;;8.86;66.89;96998.03;5004405;28;20314;-72
2021/03/11 09:27:51;;;;;;;6.90;6.30;;;;;;;8.88;67.20;97000.50;4998898;28;20279;-71
2021/03/11 09:30:25;;;;;;;5.87;5.43;;;;;;;9.10;66.09;96985.63;5006562;28;20209;-72
2021/03/11 09:32:52;;;;;;;7.40;6.70;;;;;;;9.05;66.91;96998.56;5001216;28;20233;-72
2021/03/11 09:35:25;;;;;;;6.57;6.07;;;;;;;9.09;65.97;96999.84;5009110;28;20291;-72
2021/03/11 09:37:57;;;;;;;6.07;5.57;;;;;;;9.24;66.60;96991.94;5002286;28;20233;-72
2021/03/11 09:40:30;;;;;;;6.60;6.07;;;;;;;9.07;66.46;96991.28;5004372;28;20262;-72
2021/03/11 09:43:15;;;;;;;5.70;5.20;;;;;;;9.17;65.88;96999.75;5004729;28;20293;-72
2021/03/11 09:45:45;;;;;;;6.33;5.73;;;;;;;8.98;66.84;97007.19;5004748;28;20227;-72
2021/03/11 09:48:16;;;;;;;7.10;6.07;;;;;;;8.98;66.88;97004.56;5004846;28;20232;-72
2021/03/11 09:50:56;;;;;;;6.33;5.83;;;;;;;9.17;66.50;96999.75;5004414;28;20228;-72
2021/03/11 09:53:25;;;;;;;6.60;6.00;;;;;;;9.20;66.53;96996.75;5001286;28;20201;-73
2021/03/11 09:55:55;;;;;;;6.17;5.67;;;;;;;9.25;66.00;97007.59;5005938;28;20216;-71
2021/03/11 09:58:23;;;;;;;5.77;5.37;;;;;;;9.37;66.69;97007.19;5002908;28;20235;-71
2021/03/11 10:00:51;;;;;;;7.07;5.87;;;;;;;9.43;66.19;97003.81;5003000;28;20239;-72
2021/03/11 10:03:23;;;;;;;6.27;5.67;;;;;;;9.52;65.46;97000.06;5005684;28;20481;-73
2021/03/11 10:05:56;;;;;;;5.83;5.33;;;;;;;9.21;65.69;96997.59;5002744;28;20293;-72
2021/03/11 10:08:32;;;;;;;5.80;5.30;;;;;;;9.23;67.11;96985.00;5008924;28;20232;-72
2021/03/11 10:11:04;;;;;;;6.27;5.67;;;;;;;9.42;65.71;96986.31;5004772;28;20214;-72
2021/03/11 10:13:42;;;;;;;7.23;5.80;;;;;;;9.63;64.66;96985.56;5004929;28;20201;-73
2021/03/11 10:16:10;;;;;;;5.63;5.23;;;;;;;9.65;65.63;96982.72;5005265;28;20673;-72
2021/03/11 10:18:38;;;;;;;5.53;4.97;;;;;;;9.97;63.44;96973.59;5008128;28;20720;-73
2021/03/11 10:21:08;;;;;;;5.10;4.70;;;;;;;10.21;63.71;96976.09;5007218;28;20205;-72
2021/03/11 10:23:37;;;;;;;5.43;4.87;;;;;;;10.34;62.44;96965.66;5008304;28;20205;-72
2021/03/11 10:26:20;;;;;;;6.87;5.77;;;;;;;10.42;61.95;96962.94;5009977;28;20251;-72
2021/03/11 10:28:51;;;;;;;6.20;5.70;;;;;;;10.77;61.66;96959.56;5009507;28;20239;-72
2021/03/11 10:31:22;;;;;;;5.70;5.20;;;;;;;10.95;61.00;96958.28;5007954;28;20697;-72
2021/03/11 10:34:00;;;;;;;5.73;5.23;;;;;;;10.89;60.31;96959.03;5012821;28;20581;-72
2021/03/11 10:36:28;;;;;;;5.93;5.50;;;;;;;11.02;59.43;96945.91;5008537;28;20255;-72
2021/03/11 10:39:18;;;;;;;5.83;5.33;;;;;;;11.17;59.62;96956.41;5009167;28;20225;-72
2021/03/11 10:41:59;;;;;;;6.13;5.53;;;;;;;11.08;60.00;96946.97;5002467;28;20562;-72
2021/03/11 10:44:26;;;;;;;4.90;4.50;;;;;;;11.21;60.59;96936.47;5007642;28;20289;-71
2021/03/11 10:46:54;;;;;;;5.50;5.10;;;;;;;11.17;59.85;96940.47;5007471;28;20274;-71
2021/03/11 10:49:34;;;;;;;6.77;5.30;;;;;;;11.08;60.81;96939.00;5010938;28;20205;-72
2021/03/11 10:52:03;;;;;;;5.37;4.60;;;;;;;11.00;61.32;96934.69;5007766;28;20390;-72
2021/03/11 10:54:31;;;;;;;4.97;4.57;;;;;;;11.05;61.50;96944.69;5010961;28;20197;-72
2021/03/11 10:57:05;;;;;;;4.57;4.20;;;;;;;10.99;61.90;96933.03;5003307;28;20237;-73
2021/03/11 10:59:49;;;;;;;5.13;4.63;;;;;;;10.93;62.22;96931.97;5010147;28;20207;-72
2021/03/11 11:02:16;;;;;;;4.50;4.20;;;;;;;10.82;62.48;96929.84;5012018;28;20204;-72
2021/03/11 11:04:44;;;;;;;4.77;4.47;;;;;;;11.03;62.08;96928.16;5007267;28;20208;-72
2021/03/11 11:07:12;;;;;;;5.00;4.60;;;;;;;10.89;61.89;96936.03;5007364;28;20322;-73
2021/03/11 11:09:40;;;;;;;4.90;4.50;;;;;;;10.70;62.98;96932.19;5009845;28;20734;-72
2021/03/11 11:12:09;;;;;;;6.90;4.87;;;;;;;10.64;63.68;96935.63;5005423;28;20205;-73
2021/03/11 11:14:36;;;;;;;5.20;4.70;;;;;;;10.68;63.82;96945.63;5007011;28;20254;-73
2021/03/11 11:17:04;;;;;;;6.03;4.33;;;;;;;10.81;63.48;96934.31;5010130;28;20335;-72
2021/03/11 11:19:31;;;;;;;4.67;4.30;;;;;;;10.98;63.72;96940.16;5005821;28;20640;-73
2021/03/11 11:21:59;;;;;;;3.87;3.57;;;;;;;10.80;64.21;96927.38;5008568;28;20280;-73
2021/03/11 11:24:27;;;;;;;3.57;3.27;;;;;;;10.94;64.21;96916.88;5006374;28;20220;-72
2021/03/11 11:26:58;;;;;;;2.67;2.47;;;;;;;10.97;64.53;96904.06;5006517;28;20291;-72
2021/03/11 11:29:26;;;;;;;2.63;2.43;;;;;;;11.04;64.13;96912.06;5002830;28;20292;-73
2021/03/11 11:31:53;;;;;;;2.10;2.00;;;;;;;11.06;65.26;96904.75;5006524;28;20213;-73
2021/03/11 11:34:21;;;;;;;2.57;2.20;;;;;;;11.16;64.62;96914.97;5009778;28;20209;-71
2021/03/11 11:36:48;;;;;;;3.17;2.00;;;;;;;11.21;63.81;96902.00;5008764;28;20216;-72
2021/03/11 11:39:16;;;;;;;2.57;2.20;;;;;;;11.25;64.17;96915.66;5007944;28;20201;-72
2021/03/11 11:41:44;;;;;;;2.60;2.40;;;;;;;11.19;64.95;96919.94;5004981;28;20302;-72
2021/03/11 11:44:12;;;;;;;1.90;1.80;;;;;;;11.18;65.41;96897.06;5009976;28;20384;-72
2021/03/11 11:46:40;;;;;;;2.07;1.97;;;;;;;11.28;65.24;96907.31;5005524;28;20283;-72